createdAt,value
2017-02-08T00:00:07.792Z,954.77
2017-02-08T00:01:07.426Z,954.76
2017-02-08T00:02:08.101Z,954.80
2017-02-08T00:03:07.810Z,954.82
2017-02-08T00:04:07.422Z,954.75
2017-02-08T00:05:08.094Z,954.77
2017-02-08T00:06:07.933Z,954.76
2017-02-08T00:07:07.555Z,954.77
2017-02-08T00:08:07.302Z,954.78
2017-02-08T00:09:07.923Z,954.79
2017-02-08T00:10:07.574Z,954.84
2017-02-08T00:11:07.254Z,954.81
2017-02-08T00:12:07.900Z,954.81
2017-02-08T00:13:07.623Z,954.81
2017-02-08T00:14:07.216Z,954.78
2017-02-08T00:15:07.826Z,954.81
2017-02-08T00:16:07.525Z,954.84
2017-02-08T00:17:08.271Z,954.82
2017-02-08T00:18:08.001Z,954.81
2017-02-08T00:19:07.615Z,954.84
2017-02-08T00:20:07.269Z,954.84
2017-02-08T00:21:07.920Z,954.85
2017-02-08T00:22:07.587Z,954.86
2017-02-08T00:23:07.251Z,954.86
2017-02-08T00:24:07.889Z,954.86
2017-02-08T00:25:07.530Z,954.84
2017-02-08T00:26:07.223Z,954.81
2017-02-08T00:27:07.927Z,954.81
2017-02-08T00:28:07.624Z,954.90
2017-02-08T00:29:07.233Z,954.88
2017-02-08T00:30:07.926Z,954.85
2017-02-08T00:31:07.589Z,954.84
2017-02-08T00:32:07.254Z,954.87
2017-02-08T00:33:07.965Z,954.84
2017-02-08T00:34:07.591Z,954.93
2017-02-08T00:35:07.251Z,954.89
2017-02-08T00:36:07.975Z,954.87
2017-02-08T00:37:07.621Z,954.87
2017-02-08T00:38:07.305Z,954.89
2017-02-08T00:39:07.936Z,954.85
2017-02-08T00:40:07.610Z,954.91
2017-02-08T00:41:07.247Z,954.89
2017-02-08T00:42:07.883Z,954.85
2017-02-08T00:43:07.586Z,954.89
2017-02-08T00:44:08.210Z,954.90
2017-02-08T00:45:07.873Z,954.86
2017-02-08T00:46:07.527Z,954.87
2017-02-08T00:47:08.192Z,954.86
2017-02-08T00:48:07.889Z,954.89
2017-02-08T00:49:07.492Z,954.92
2017-02-08T00:50:08.200Z,954.88
2017-02-08T00:51:07.826Z,954.88
2017-02-08T00:52:07.502Z,954.89
2017-02-08T00:53:08.164Z,954.85
2017-02-08T00:54:07.781Z,954.87
2017-02-08T00:55:07.462Z,954.89
2017-02-08T00:56:08.095Z,954.86
2017-02-08T00:57:07.739Z,954.84
2017-02-08T00:58:07.447Z,954.87
2017-02-08T00:59:08.040Z,954.90
2017-02-08T01:00:07.681Z,954.87
2017-02-08T01:01:07.312Z,954.88
2017-02-08T01:02:07.983Z,954.90
2017-02-08T01:03:07.701Z,954.88
2017-02-08T01:04:07.325Z,954.89
2017-02-08T01:05:07.961Z,954.94
2017-02-08T01:06:07.761Z,954.93
2017-02-08T01:07:07.408Z,954.94
2017-02-08T01:08:08.130Z,954.97
2017-02-08T01:09:07.758Z,955.01
2017-02-08T01:10:07.402Z,954.96
2017-02-08T01:11:08.034Z,955.01
2017-02-08T01:12:07.664Z,955.04
2017-02-08T01:13:07.372Z,955.04
2017-02-08T01:14:08.000Z,955.03
2017-02-08T01:15:07.703Z,955.04
2017-02-08T01:16:07.304Z,955.00
2017-02-08T01:17:08.071Z,955.03
2017-02-08T01:18:07.838Z,954.99
2017-02-08T01:19:07.461Z,954.99
2017-02-08T01:20:08.132Z,954.96
2017-02-08T01:21:07.783Z,954.99
2017-02-08T01:22:07.464Z,954.99
2017-02-08T01:23:08.156Z,955.01
2017-02-08T01:24:07.765Z,955.01
2017-02-08T01:25:07.403Z,954.98
2017-02-08T01:26:08.064Z,955.01
2017-02-08T01:27:07.712Z,954.96
2017-02-08T01:28:07.431Z,954.93
2017-02-08T01:29:07.994Z,954.91
2017-02-08T01:30:07.645Z,954.88
2017-02-08T01:31:07.310Z,954.87
2017-02-08T01:32:07.971Z,954.87
2017-02-08T01:33:07.703Z,954.84
2017-02-08T01:34:07.312Z,954.81
2017-02-08T01:35:07.946Z,954.81
2017-02-08T01:36:07.786Z,954.82
2017-02-08T01:37:07.435Z,954.77
2017-02-08T01:38:08.332Z,954.77
2017-02-08T01:39:07.771Z,954.75
2017-02-08T01:40:07.418Z,954.76
2017-02-08T01:41:08.092Z,954.77
2017-02-08T01:42:07.802Z,954.80
2017-02-08T01:43:07.519Z,954.78
2017-02-08T01:44:08.115Z,954.77
2017-02-08T01:45:07.801Z,954.79
2017-02-08T01:46:07.469Z,954.78
2017-02-08T01:47:08.130Z,954.72
2017-02-08T01:48:07.824Z,954.76
2017-02-08T01:49:07.413Z,954.74
2017-02-08T01:50:08.022Z,954.72
2017-02-08T01:51:07.738Z,954.76
2017-02-08T01:53:08.022Z,954.77
2017-02-08T01:54:07.633Z,954.73
2017-02-08T01:55:07.249Z,954.78
2017-02-08T01:56:07.923Z,954.75
2017-02-08T01:57:07.587Z,954.75
2017-02-08T01:58:07.302Z,954.75
2017-02-08T01:59:07.879Z,954.76
2017-02-08T02:00:08.582Z,954.73
2017-02-08T02:01:08.137Z,954.74
2017-02-08T02:02:07.853Z,954.75
2017-02-08T02:03:07.537Z,954.73
2017-02-08T02:04:08.129Z,954.75
2017-02-08T02:05:07.806Z,954.76
2017-02-08T02:06:07.526Z,954.81
2017-02-08T02:07:08.168Z,954.73
2017-02-08T02:08:07.883Z,954.78
2017-02-08T02:09:07.493Z,954.76
2017-02-08T02:10:08.180Z,954.73
2017-02-08T02:11:07.831Z,954.77
2017-02-08T02:12:07.458Z,954.67
2017-02-08T02:13:18.626Z,954.67
2017-02-08T02:14:07.810Z,954.66
2017-02-08T02:15:07.537Z,954.67
2017-02-08T02:16:08.088Z,954.69
2017-02-08T02:17:07.811Z,954.72
2017-02-08T02:18:07.495Z,954.78
2017-02-08T02:19:08.218Z,954.74
2017-02-08T02:20:07.872Z,954.72
2017-02-08T02:21:07.523Z,954.73
2017-02-08T02:22:07.195Z,954.71
2017-02-08T02:23:07.848Z,954.77
2017-02-08T02:24:07.560Z,954.72
2017-02-08T02:25:08.145Z,954.74
2017-02-08T02:26:07.760Z,954.71
2017-02-08T02:27:07.387Z,954.70
2017-02-08T02:28:08.060Z,954.74
2017-02-08T02:29:07.729Z,954.79
2017-02-08T02:30:07.366Z,954.77
2017-02-08T02:31:08.024Z,954.75
2017-02-08T02:32:07.684Z,954.71
2017-02-08T02:33:07.305Z,954.77
2017-02-08T02:34:08.016Z,954.76
2017-02-08T02:35:08.760Z,954.76
2017-02-08T02:36:07.278Z,954.77
2017-02-08T02:37:07.976Z,954.80
2017-02-08T02:38:07.618Z,954.78
2017-02-08T02:39:07.313Z,954.75
2017-02-08T02:40:07.924Z,954.75
2017-02-08T02:41:07.578Z,954.73
2017-02-08T02:42:07.249Z,954.78
2017-02-08T02:43:07.930Z,954.74
2017-02-08T02:44:07.590Z,954.78
2017-02-08T02:45:07.266Z,954.71
2017-02-08T02:46:07.909Z,954.79
2017-02-08T02:47:07.555Z,954.78
2017-02-08T02:48:08.192Z,954.76
2017-02-08T02:49:07.870Z,954.76
2017-02-08T02:50:07.544Z,954.73
2017-02-08T02:51:08.181Z,954.73
2017-02-08T02:52:07.872Z,954.74
2017-02-08T02:53:07.547Z,954.68
2017-02-08T02:54:07.258Z,954.70
2017-02-08T02:55:07.887Z,954.67
2017-02-08T02:56:07.548Z,954.68
2017-02-08T02:57:08.213Z,954.68
2017-02-08T02:58:07.829Z,954.65
2017-02-08T02:59:07.531Z,954.72
2017-02-08T03:00:08.158Z,954.76
2017-02-08T03:01:07.794Z,954.74
2017-02-08T03:02:07.447Z,954.79
2017-02-08T03:03:08.117Z,954.79
2017-02-08T03:04:07.775Z,954.80
2017-02-08T03:05:07.552Z,954.86
2017-02-08T03:06:08.065Z,954.84
2017-02-08T03:07:07.688Z,954.84
2017-02-08T03:08:07.336Z,954.93
2017-02-08T03:09:08.014Z,954.89
2017-02-08T03:10:07.650Z,954.93
2017-02-08T03:11:07.295Z,954.91
2017-02-08T03:12:07.936Z,954.92
2017-02-08T03:13:07.614Z,954.95
2017-02-08T03:14:07.307Z,954.94
2017-02-08T03:15:07.927Z,954.94
2017-02-08T03:16:07.557Z,954.97
2017-02-08T03:17:07.284Z,954.97
2017-02-08T03:18:08.049Z,954.99
2017-02-08T03:19:07.716Z,954.98
2017-02-08T03:20:07.344Z,954.97
2017-02-08T03:21:08.016Z,954.99
2017-02-08T03:22:07.638Z,954.99
2017-02-08T03:23:07.325Z,954.97
2017-02-08T03:24:07.970Z,954.94
2017-02-08T03:25:07.580Z,954.96
2017-02-08T03:26:07.228Z,954.99
2017-02-08T03:27:07.915Z,954.95
2017-02-08T03:28:07.538Z,954.99
2017-02-08T03:29:08.203Z,955.00
2017-02-08T03:30:07.814Z,954.99
2017-02-08T03:31:07.498Z,954.97
2017-02-08T03:32:08.140Z,954.97
2017-02-08T03:33:07.826Z,954.97
2017-02-08T03:34:07.495Z,955.04
2017-02-08T03:35:08.144Z,955.00
2017-02-08T03:36:07.753Z,954.99
2017-02-08T03:37:07.429Z,955.02
2017-02-08T03:38:08.080Z,955.06
2017-02-08T03:39:07.757Z,955.04
2017-02-08T03:40:07.358Z,955.06
2017-02-08T03:41:07.992Z,955.05
2017-02-08T03:42:07.613Z,955.05
2017-02-08T03:43:07.320Z,955.08
2017-02-08T03:44:07.988Z,955.05
2017-02-08T03:45:07.614Z,955.11
2017-02-08T03:46:07.215Z,955.06
2017-02-08T03:47:07.891Z,955.03
2017-02-08T03:48:07.563Z,955.06
2017-02-08T03:49:08.235Z,955.10
2017-02-08T03:50:07.854Z,955.10
2017-02-08T03:51:07.459Z,955.09
2017-02-08T03:52:08.109Z,955.14
2017-02-08T03:53:07.786Z,955.12
2017-02-08T03:54:07.499Z,955.21
2017-02-08T03:55:08.110Z,955.20
2017-02-08T03:56:07.806Z,955.24
2017-02-08T03:57:07.498Z,955.22
2017-02-08T03:58:08.120Z,955.21
2017-02-08T03:59:07.800Z,955.24
2017-02-08T04:00:07.410Z,955.26
2017-02-08T04:01:08.088Z,955.23
2017-02-08T04:02:07.758Z,955.23
2017-02-08T04:03:07.374Z,955.25
2017-02-08T04:04:08.082Z,955.25
2017-02-08T04:05:07.827Z,955.24
2017-02-08T04:06:07.339Z,955.23
2017-02-08T04:07:08.116Z,955.28
2017-02-08T04:08:07.650Z,955.25
2017-02-08T04:09:07.360Z,955.26
2017-02-08T04:10:07.990Z,955.30
2017-02-08T04:11:07.680Z,955.26
2017-02-08T04:12:08.823Z,955.28
2017-02-08T04:13:07.978Z,955.27
2017-02-08T04:14:07.677Z,955.29
2017-02-08T04:15:07.297Z,955.28
2017-02-08T04:16:07.966Z,955.28
2017-02-08T04:17:07.729Z,955.33
2017-02-08T04:18:07.430Z,955.35
2017-02-08T04:19:08.121Z,955.34
2017-02-08T04:20:07.728Z,955.34
2017-02-08T04:21:07.379Z,955.32
2017-02-08T04:22:08.043Z,955.32
2017-02-08T04:23:07.822Z,955.34
2017-02-08T04:24:07.417Z,955.35
2017-02-08T04:25:08.009Z,955.32
2017-02-08T04:26:07.648Z,955.32
2017-02-08T04:27:07.299Z,955.34
2017-02-08T04:28:08.001Z,955.29
2017-02-08T04:29:07.708Z,955.33
2017-02-08T04:30:07.332Z,955.34
2017-02-08T04:31:07.957Z,955.35
2017-02-08T04:32:07.575Z,955.35
2017-02-08T04:33:07.227Z,955.37
2017-02-08T04:34:07.917Z,955.41
2017-02-08T04:35:07.678Z,955.36
2017-02-08T04:36:08.155Z,955.38
2017-02-08T04:37:07.852Z,955.41
2017-02-08T04:38:07.527Z,955.44
2017-02-08T04:39:08.214Z,955.37
2017-02-08T04:40:07.834Z,955.37
2017-02-08T04:41:07.484Z,955.37
2017-02-08T04:42:08.143Z,955.35
2017-02-08T04:43:07.797Z,955.35
2017-02-08T04:44:07.470Z,955.35
2017-02-08T04:45:08.090Z,955.34
2017-02-08T04:46:07.758Z,955.36
2017-02-08T04:47:07.391Z,955.38
2017-02-08T04:48:08.036Z,955.39
2017-02-08T04:49:07.713Z,955.34
2017-02-08T04:50:07.359Z,955.36
2017-02-08T04:51:08.030Z,955.34
2017-02-08T04:52:07.651Z,955.34
2017-02-08T04:53:07.314Z,955.37
2017-02-08T04:54:08.019Z,955.36
2017-02-08T04:55:07.610Z,955.33
2017-02-08T04:56:07.274Z,955.37
2017-02-08T04:57:07.942Z,955.37
2017-02-08T04:58:07.584Z,955.41
2017-02-08T04:59:07.269Z,955.39
2017-02-08T05:00:07.842Z,955.38
2017-02-08T05:01:07.570Z,955.37
2017-02-08T05:02:08.209Z,955.36
2017-02-08T05:03:07.836Z,955.36
2017-02-08T05:04:07.627Z,955.38
2017-02-08T05:05:08.190Z,955.41
2017-02-08T05:06:07.796Z,955.41
2017-02-08T05:07:07.467Z,955.39
2017-02-08T05:08:08.086Z,955.46
2017-02-08T05:09:07.787Z,955.42
2017-02-08T05:10:07.433Z,955.48
2017-02-08T05:11:08.035Z,955.57
2017-02-08T05:12:07.685Z,955.53
2017-02-08T05:13:07.342Z,955.53
2017-02-08T05:14:08.049Z,955.54
2017-02-08T05:15:07.691Z,955.57
2017-02-08T05:16:07.343Z,955.55
2017-02-08T05:17:08.070Z,955.59
2017-02-08T05:18:07.793Z,955.56
2017-02-08T05:19:07.471Z,955.52
2017-02-08T05:20:08.150Z,955.50
2017-02-08T05:21:07.834Z,955.54
2017-02-08T05:22:07.431Z,955.53
2017-02-08T05:23:08.049Z,955.58
2017-02-08T05:24:07.775Z,955.58
2017-02-08T05:25:09.864Z,955.63
2017-02-08T05:26:07.755Z,955.66
2017-02-08T05:27:07.458Z,955.63
2017-02-08T05:28:08.086Z,955.64
2017-02-08T05:29:07.808Z,955.63
2017-02-08T05:30:07.428Z,955.61
2017-02-08T05:31:08.062Z,955.65
2017-02-08T05:32:07.748Z,955.62
2017-02-08T05:33:07.408Z,955.58
2017-02-08T05:34:08.095Z,955.62
2017-02-08T05:35:07.856Z,955.66
2017-02-08T05:36:07.407Z,955.65
2017-02-08T05:37:08.040Z,955.65
2017-02-08T05:38:07.701Z,955.68
2017-02-08T05:39:07.412Z,955.71
2017-02-08T05:40:08.022Z,955.64
2017-02-08T05:41:07.695Z,955.64
2017-02-08T05:42:07.328Z,955.68
2017-02-08T05:43:07.979Z,955.72
2017-02-08T05:44:07.672Z,955.66
2017-02-08T05:45:07.293Z,955.69
2017-02-08T05:46:07.954Z,955.70
2017-02-08T05:47:07.601Z,955.68
2017-02-08T05:48:07.339Z,955.66
2017-02-08T05:49:07.951Z,955.67
2017-02-08T05:50:07.541Z,955.72
2017-02-08T05:51:08.197Z,955.69
2017-02-08T05:52:07.793Z,955.70
2017-02-08T05:53:07.483Z,955.74
2017-02-08T05:54:08.184Z,955.75
2017-02-08T05:55:07.773Z,955.79
2017-02-08T05:56:07.477Z,955.82
2017-02-08T05:57:08.116Z,955.84
2017-02-08T05:58:07.755Z,955.87
2017-02-08T05:59:07.477Z,955.88
2017-02-08T06:00:08.052Z,955.90
2017-02-08T06:01:07.685Z,955.90
2017-02-08T06:02:07.374Z,955.91
2017-02-08T06:03:07.994Z,955.93
2017-02-08T06:04:07.712Z,955.92
2017-02-08T06:05:07.405Z,955.94
2017-02-08T06:06:07.971Z,955.97
2017-02-08T06:07:07.642Z,955.97
2017-02-08T06:08:07.302Z,955.99
2017-02-08T06:09:08.004Z,956.06
2017-02-08T06:10:07.621Z,956.06
2017-02-08T06:11:07.205Z,956.02
2017-02-08T06:12:07.906Z,956.05
2017-02-08T06:13:07.580Z,956.07
2017-02-08T06:14:07.273Z,956.07
2017-02-08T06:15:07.898Z,956.08
2017-02-08T06:16:07.529Z,956.04
2017-02-08T06:17:07.297Z,956.03
2017-02-08T06:18:07.996Z,956.12
2017-02-08T06:19:07.703Z,956.11
2017-02-08T06:20:07.293Z,956.11
2017-02-08T06:21:07.976Z,956.11
2017-02-08T06:22:07.633Z,956.09
2017-02-08T06:23:07.279Z,956.08
2017-02-08T06:24:07.930Z,956.13
2017-02-08T06:25:07.532Z,956.13
2017-02-08T06:26:23.047Z,956.16
2017-02-08T06:27:07.830Z,956.13
2017-02-08T06:28:07.482Z,956.15
2017-02-08T06:29:08.182Z,956.24
2017-02-08T06:30:07.775Z,956.20
2017-02-08T06:31:07.479Z,956.24
2017-02-08T06:32:08.164Z,956.25
2017-02-08T06:33:07.772Z,956.24
2017-02-08T06:34:07.484Z,956.30
2017-02-08T06:35:08.164Z,956.30
2017-02-08T06:36:07.782Z,956.26
2017-02-08T06:37:07.474Z,956.34
2017-02-08T06:38:08.130Z,956.32
2017-02-08T06:39:07.863Z,956.31
2017-02-08T06:40:07.455Z,956.34
2017-02-08T06:41:08.120Z,956.36
2017-02-08T06:42:07.755Z,956.37
2017-02-08T06:43:07.433Z,956.41
2017-02-08T06:44:08.084Z,956.39
2017-02-08T06:45:07.740Z,956.40
2017-02-08T06:46:07.385Z,956.41
2017-02-08T06:47:08.066Z,956.45
2017-02-08T06:48:07.697Z,956.42
2017-02-08T06:49:07.413Z,956.48
2017-02-08T06:50:08.027Z,956.45
2017-02-08T06:51:07.663Z,956.44
2017-02-08T06:52:07.325Z,956.45
2017-02-08T06:53:07.987Z,956.41
2017-02-08T06:54:07.715Z,956.40
2017-02-08T06:55:07.314Z,956.44
2017-02-08T06:56:07.307Z,956.46
2017-02-08T06:57:07.909Z,956.44
2017-02-08T06:58:07.590Z,956.45
2017-02-08T06:59:07.296Z,956.49
2017-02-08T07:00:07.897Z,956.48
2017-02-08T07:01:07.579Z,956.55
2017-02-08T07:02:08.192Z,956.54
2017-02-08T07:03:07.918Z,956.55
2017-02-08T07:04:07.536Z,956.55
2017-02-08T07:05:09.278Z,956.60
2017-02-08T07:06:07.861Z,956.61
2017-02-08T07:07:07.466Z,956.60
2017-02-08T07:08:08.112Z,956.60
2017-02-08T07:09:08.900Z,956.62
2017-02-08T07:10:07.411Z,956.60
2017-02-08T07:11:08.067Z,956.66
2017-02-08T07:12:07.699Z,956.65
2017-02-08T07:13:07.376Z,956.70
2017-02-08T07:14:08.062Z,956.70
2017-02-08T07:15:08.180Z,956.65
2017-02-08T07:16:07.347Z,956.71
2017-02-08T07:17:09.085Z,956.75
2017-02-08T07:18:07.852Z,956.72
2017-02-08T07:19:07.498Z,956.72
2017-02-08T07:20:08.185Z,956.68
2017-02-08T07:21:07.796Z,956.72
2017-02-08T07:22:08.699Z,956.74
2017-02-08T07:23:08.116Z,956.73
2017-02-08T07:24:07.750Z,956.75
2017-02-08T07:25:07.471Z,956.79
2017-02-08T07:26:08.091Z,956.80
2017-02-08T07:27:07.729Z,956.79
2017-02-08T07:28:07.421Z,956.85
2017-02-08T07:29:08.120Z,956.87
2017-02-08T07:30:07.804Z,956.81
2017-02-08T07:31:07.457Z,956.84
2017-02-08T07:32:08.068Z,956.84
2017-02-08T07:33:07.711Z,956.87
2017-02-08T07:34:07.382Z,956.86
2017-02-08T07:35:08.157Z,956.90
2017-02-08T07:36:08.737Z,956.92
2017-02-08T07:37:07.378Z,956.94
2017-02-08T07:38:08.009Z,956.87
2017-02-08T07:39:07.661Z,956.87
2017-02-08T07:40:07.356Z,956.89
2017-02-08T07:41:07.940Z,956.86
2017-02-08T07:42:07.613Z,956.89
2017-02-08T07:43:07.290Z,956.90
2017-02-08T07:44:07.938Z,956.96
2017-02-08T07:45:07.562Z,956.98
2017-02-08T07:46:08.187Z,956.97
2017-02-08T07:47:07.831Z,956.92
2017-02-08T07:48:07.533Z,956.94
2017-02-08T07:49:08.389Z,956.95
2017-02-08T07:50:07.846Z,956.97
2017-02-08T07:51:07.487Z,956.93
2017-02-08T07:52:08.113Z,956.99
2017-02-08T07:53:07.791Z,956.95
2017-02-08T07:54:07.470Z,956.97
2017-02-08T07:55:08.191Z,956.96
2017-02-08T07:56:07.798Z,956.95
2017-02-08T07:57:07.475Z,956.98
2017-02-08T07:58:08.140Z,957.02
2017-02-08T07:59:07.820Z,956.96
2017-02-08T08:00:07.501Z,957.00
2017-02-08T08:01:08.094Z,956.99
2017-02-08T08:02:17.856Z,957.08
2017-02-08T08:03:07.433Z,957.04
2017-02-08T08:04:09.164Z,957.04
2017-02-08T08:05:07.908Z,957.09
2017-02-08T08:06:07.377Z,957.10
2017-02-08T08:07:08.054Z,957.12
2017-02-08T08:08:07.706Z,957.11
2017-02-08T08:09:07.375Z,957.11
2017-02-08T08:10:08.054Z,957.12
2017-02-08T08:11:07.687Z,957.13
2017-02-08T08:12:07.378Z,957.11
2017-02-08T08:13:08.025Z,957.08
2017-02-08T08:14:07.730Z,957.06
2017-02-08T08:15:07.428Z,957.12
2017-02-08T08:16:08.029Z,957.09
2017-02-08T08:17:07.824Z,957.13
2017-02-08T08:18:07.523Z,957.14
2017-02-08T08:19:07.238Z,957.10
2017-02-08T08:20:07.923Z,957.12
2017-02-08T08:21:07.573Z,957.15
2017-02-08T08:22:07.227Z,957.11
2017-02-08T08:23:07.879Z,957.09
2017-02-08T08:24:07.525Z,957.15
2017-02-08T08:25:07.257Z,957.13
2017-02-08T08:26:07.878Z,957.12
2017-02-08T08:27:07.584Z,957.13
2017-02-08T08:28:07.240Z,957.09
2017-02-08T08:29:07.946Z,957.10
2017-02-08T08:30:07.602Z,957.09
2017-02-08T08:31:07.193Z,957.07
2017-02-08T08:32:07.866Z,957.10
2017-02-08T08:33:07.553Z,957.09
2017-02-08T08:34:08.187Z,957.08
2017-02-08T08:35:08.001Z,957.03
2017-02-08T08:36:07.468Z,957.06
2017-02-08T08:37:08.129Z,957.06
2017-02-08T08:38:07.787Z,957.07
2017-02-08T08:39:07.449Z,957.06
2017-02-08T08:40:08.145Z,957.10
2017-02-08T08:41:07.736Z,957.10
2017-02-08T08:42:07.419Z,957.13
2017-02-08T08:43:08.093Z,957.13
2017-02-08T08:44:07.746Z,957.18
2017-02-08T08:45:07.644Z,957.21
2017-02-08T08:46:08.086Z,957.19
2017-02-08T08:47:07.701Z,957.24
2017-02-08T08:48:07.410Z,957.23
2017-02-08T08:49:08.084Z,957.21
2017-02-08T08:50:07.719Z,957.25
2017-02-08T08:51:07.306Z,957.27
2017-02-08T08:52:07.959Z,957.22
2017-02-08T08:53:07.675Z,957.26
2017-02-08T08:54:07.282Z,957.22
2017-02-08T08:55:08.075Z,957.20
2017-02-08T08:56:07.603Z,957.21
2017-02-08T08:57:07.263Z,957.19
2017-02-08T08:58:07.885Z,957.21
2017-02-08T08:59:07.553Z,957.15
2017-02-08T09:00:08.197Z,957.24
2017-02-08T09:01:07.815Z,957.27
2017-02-08T09:02:07.465Z,957.25
2017-02-08T09:03:08.118Z,957.27
2017-02-08T09:04:07.927Z,957.32
2017-02-08T09:05:07.658Z,957.29
2017-02-08T09:06:08.101Z,957.25
2017-02-08T09:07:07.696Z,957.28
2017-02-08T09:08:07.435Z,957.30
2017-02-08T09:09:08.090Z,957.29
2017-02-08T09:10:08.228Z,957.32
2017-02-08T09:11:07.375Z,957.29
2017-02-08T09:12:08.041Z,957.33
2017-02-08T09:13:07.706Z,957.34
2017-02-08T09:14:07.378Z,957.41
2017-02-08T09:15:08.018Z,957.35
2017-02-08T09:16:07.678Z,957.34
2017-02-08T09:17:07.401Z,957.40
2017-02-08T09:18:08.147Z,957.36
2017-02-08T09:19:08.901Z,957.36
2017-02-08T09:20:08.580Z,957.35
2017-02-08T09:21:08.109Z,957.32
2017-02-08T09:22:07.776Z,957.42
2017-02-08T09:23:07.443Z,957.38
2017-02-08T09:24:08.086Z,957.41
2017-02-08T09:25:07.727Z,957.41
2017-02-08T09:26:07.419Z,957.43
2017-02-08T09:27:08.025Z,957.47
2017-02-08T09:28:07.700Z,957.54
2017-02-08T09:29:07.457Z,957.49
2017-02-08T09:30:08.000Z,957.48
2017-02-08T09:31:07.680Z,957.49
2017-02-08T09:32:07.277Z,957.49
2017-02-08T09:33:09.007Z,957.57
2017-02-08T09:35:07.816Z,957.53
2017-02-08T09:36:08.631Z,957.53
2017-02-08T09:37:08.114Z,957.48
2017-02-08T09:38:07.766Z,957.51
2017-02-08T09:39:08.529Z,957.48
2017-02-08T09:40:08.249Z,957.51
2017-02-08T09:41:07.809Z,957.50
2017-02-08T09:42:07.433Z,957.46
2017-02-08T09:43:21.282Z,957.45
2017-02-08T09:44:07.861Z,957.43
2017-02-08T09:45:07.481Z,957.53
2017-02-08T09:46:08.152Z,957.54
2017-02-08T09:47:07.838Z,957.51
2017-02-08T09:48:15.099Z,957.50
2017-02-08T09:49:08.081Z,957.50
2017-02-08T09:50:15.331Z,957.54
2017-02-08T09:51:07.379Z,957.58
2017-02-08T09:52:08.050Z,957.60
2017-02-08T09:53:07.686Z,957.61
2017-02-08T09:54:07.315Z,957.61
2017-02-08T09:55:07.936Z,957.62
2017-02-08T09:56:15.105Z,957.66
2017-02-08T09:57:07.277Z,957.62
2017-02-08T09:58:07.872Z,957.60
2017-02-08T09:59:07.573Z,957.57
2017-02-08T10:00:15.717Z,957.64
2017-02-08T10:01:07.828Z,957.61
2017-02-08T10:02:07.552Z,957.63
2017-02-08T10:03:08.141Z,957.61
2017-02-08T10:04:07.930Z,957.66
2017-02-08T10:05:07.490Z,957.63
2017-02-08T10:06:08.205Z,957.70
2017-02-08T10:07:07.926Z,957.67
2017-02-08T10:08:08.586Z,957.72
2017-02-08T10:09:08.164Z,957.68
2017-02-08T10:10:07.877Z,957.70
2017-02-08T10:11:07.477Z,957.71
2017-02-08T10:12:08.220Z,957.67
2017-02-08T10:13:07.840Z,957.64
2017-02-08T10:14:07.513Z,957.64
2017-02-08T10:15:08.178Z,957.65
2017-02-08T10:16:07.838Z,957.70
2017-02-08T10:17:07.603Z,957.71
2017-02-08T10:18:07.322Z,957.74
2017-02-08T10:19:08.018Z,957.70
2017-02-08T10:20:07.735Z,957.74
2017-02-08T10:21:07.313Z,957.74
2017-02-08T10:22:08.013Z,957.72
2017-02-08T10:23:07.674Z,957.71
2017-02-08T10:24:07.332Z,957.76
2017-02-08T10:25:07.959Z,957.77
2017-02-08T10:26:08.664Z,957.74
2017-02-08T10:27:07.325Z,957.77
2017-02-08T10:28:09.020Z,957.72
2017-02-08T10:29:07.656Z,957.73
2017-02-08T10:30:07.319Z,957.73
2017-02-08T10:31:07.982Z,957.75
2017-02-08T10:32:07.670Z,957.71
2017-02-08T10:33:07.265Z,957.76
2017-02-08T10:34:07.943Z,957.72
2017-02-08T10:35:07.584Z,957.68
2017-02-08T10:36:07.255Z,957.67
2017-02-08T10:37:07.955Z,957.61
2017-02-08T10:38:07.637Z,957.64
2017-02-08T10:39:07.273Z,957.66
2017-02-08T10:40:07.957Z,957.68
2017-02-08T10:41:07.562Z,957.65
2017-02-08T10:42:07.273Z,957.65
2017-02-08T10:43:07.925Z,957.63
2017-02-08T10:44:07.617Z,957.64
2017-02-08T10:45:07.203Z,957.63
2017-02-08T10:46:07.873Z,957.63
2017-02-08T10:47:07.600Z,957.62
2017-02-08T10:48:07.227Z,957.61
2017-02-08T10:49:07.935Z,957.62
2017-02-08T10:50:07.633Z,957.63
2017-02-08T10:51:08.219Z,957.66
2017-02-08T10:52:09.050Z,957.60
2017-02-08T10:53:07.517Z,957.63
2017-02-08T10:54:08.194Z,957.63
2017-02-08T10:55:07.865Z,957.56
2017-02-08T10:56:07.536Z,957.65
2017-02-08T10:57:08.236Z,957.64
2017-02-08T10:58:07.833Z,957.66
2017-02-08T10:59:07.514Z,957.62
2017-02-08T11:00:09.254Z,957.63
2017-02-08T11:01:07.812Z,957.66
2017-02-08T11:02:07.463Z,957.68
2017-02-08T11:03:08.198Z,957.60
2017-02-08T11:04:07.780Z,957.64
2017-02-08T11:05:07.379Z,957.59
2017-02-08T11:06:08.068Z,957.56
2017-02-08T11:07:07.703Z,957.63
2017-02-08T11:08:07.429Z,957.57
2017-02-08T11:09:08.034Z,957.64
2017-02-08T11:10:07.721Z,957.59
2017-02-08T11:11:07.355Z,957.54
2017-02-08T11:12:08.028Z,957.58
2017-02-08T11:13:07.763Z,957.53
2017-02-08T11:14:07.359Z,957.61
2017-02-08T11:15:07.973Z,957.56
2017-02-08T11:16:07.623Z,957.62
2017-02-08T11:17:07.386Z,957.58
2017-02-08T11:18:08.146Z,957.58
2017-02-08T11:19:07.762Z,957.62
2017-02-08T11:20:07.444Z,957.56
2017-02-08T11:21:08.062Z,957.60
2017-02-08T11:22:07.721Z,957.54
2017-02-08T11:23:08.558Z,957.59
2017-02-08T11:24:08.075Z,957.53
2017-02-08T11:25:07.705Z,957.56
2017-02-08T11:26:07.397Z,957.52
2017-02-08T11:27:08.043Z,957.54
2017-02-08T11:28:07.708Z,957.53
2017-02-08T11:29:07.406Z,957.54
2017-02-08T11:30:15.582Z,957.57
2017-02-08T11:31:07.686Z,957.56
2017-02-08T11:32:07.347Z,957.58
2017-02-08T11:33:08.220Z,957.60
2017-02-08T11:34:07.767Z,957.61
2017-02-08T11:35:07.264Z,957.62
2017-02-08T11:36:08.055Z,957.66
2017-02-08T11:37:07.632Z,957.67
2017-02-08T11:38:07.271Z,957.68
2017-02-08T11:39:07.947Z,957.69
2017-02-08T11:40:15.164Z,957.66
2017-02-08T11:41:08.193Z,957.69
2017-02-08T11:42:07.843Z,957.68
2017-02-08T11:43:07.505Z,957.66
2017-02-08T11:44:18.733Z,957.69
2017-02-08T11:45:07.871Z,957.67
2017-02-08T11:46:08.521Z,957.68
2017-02-08T11:47:08.087Z,957.65
2017-02-08T11:48:07.735Z,957.66
2017-02-08T11:49:07.464Z,957.63
2017-02-08T11:50:08.058Z,957.67
2017-02-08T11:51:07.733Z,957.66
2017-02-08T11:52:07.428Z,957.64
2017-02-08T11:53:08.051Z,957.70
2017-02-08T11:54:07.758Z,957.68
2017-02-08T11:55:07.613Z,957.70
2017-02-08T11:56:08.056Z,957.71
2017-02-08T11:57:07.686Z,957.71
2017-02-08T11:58:07.363Z,957.73
2017-02-08T11:59:08.226Z,957.76
2017-02-08T12:00:08.853Z,957.82
2017-02-08T12:01:08.404Z,957.81
2017-02-08T12:02:07.981Z,957.77
2017-02-08T12:03:07.621Z,957.74
2017-02-08T12:04:08.371Z,957.77
2017-02-08T12:05:09.361Z,957.80
2017-02-08T12:06:07.577Z,957.77
2017-02-08T12:07:08.207Z,957.78
2017-02-08T12:08:07.845Z,957.82
2017-02-08T12:09:07.524Z,957.78
2017-02-08T12:10:08.208Z,957.77
2017-02-08T12:11:07.794Z,957.77
2017-02-08T12:12:07.443Z,957.76
2017-02-08T12:13:08.116Z,957.77
2017-02-08T12:14:07.897Z,957.78
2017-02-08T12:15:07.483Z,957.80
2017-02-08T12:16:08.143Z,957.81
2017-02-08T12:17:07.826Z,957.83
2017-02-08T12:18:07.570Z,957.82
2017-02-08T12:19:08.329Z,957.85
2017-02-08T12:20:07.990Z,957.81
2017-02-08T12:21:07.611Z,957.79
2017-02-08T12:22:07.218Z,957.82
2017-02-08T12:23:07.893Z,957.82
2017-02-08T12:24:07.534Z,957.82
2017-02-08T12:25:08.336Z,957.81
2017-02-08T12:26:07.855Z,957.85
2017-02-08T12:27:07.460Z,957.88
2017-02-08T12:28:08.132Z,957.85
2017-02-08T12:29:08.913Z,957.87
2017-02-08T12:30:07.416Z,957.87